Terminal Aerodrome Forecast
Issued by NWS Charleston, SC

Current Version | Previous Version | Text Only | Print | Product List | Glossary On
Versions: 1 2 3 4 5 6 7 8 9 10 11 12 13 14 15 16 17 18 19
000
FTUS42 KCHS 011100
TAFSAV
TAF
KSAV 011139Z 0112/0212 28016G25KT P6SM BKN045
     FM011430 30028G37KT P6SM BKN035
     FM012000 31021G28KT P6SM BKN045
     FM012300 31012G18KT P6SM BKN050
     FM020300 30011KT P6SM SKC=

USA.gov is the U.S. government's official web portal to all federal, state and local government web resources and services.